createdAt,value
2022-11-14T00:00:59.388Z,100.00
2022-11-14T00:03:25.843Z,100.00
2022-11-14T00:05:52.473Z,100.00
2022-11-14T00:08:19.896Z,100.00
2022-11-14T00:10:46.870Z,100.00
2022-11-14T00:13:13.428Z,100.00
2022-11-14T00:15:39.888Z,100.00
2022-11-14T00:18:06.410Z,100.00
2022-11-14T00:20:32.944Z,100.00
2022-11-14T00:26:28.004Z,100.00
2022-11-14T00:28:54.837Z,100.00
2022-11-14T00:31:21.321Z,100.00
2022-11-14T00:33:47.788Z,100.00
2022-11-14T00:36:14.297Z,100.00
2022-11-14T00:38:40.846Z,100.00
2022-11-14T00:41:07.263Z,100.00
2022-11-14T00:43:33.771Z,100.00
2022-11-14T00:46:00.226Z,100.00
2022-11-14T00:48:28.327Z,100.00
2022-11-14T00:50:55.016Z,100.00
2022-11-14T00:53:21.499Z,100.00
2022-11-14T00:55:47.940Z,100.00
2022-11-14T00:58:14.423Z,100.00
2022-11-14T01:00:40.989Z,100.00
2022-11-14T01:03:07.488Z,100.00
2022-11-14T01:05:33.979Z,100.00
2022-11-14T01:08:00.429Z,100.00
2022-11-14T01:10:26.948Z,100.00
2022-11-14T01:12:53.475Z,100.00
2022-11-14T01:15:19.936Z,100.00
2022-11-14T01:17:48.780Z,100.00
2022-11-14T01:20:15.951Z,100.00
2022-11-14T01:22:42.402Z,100.00
2022-11-14T01:25:08.851Z,100.00
2022-11-14T01:27:35.341Z,79.34
2022-11-14T01:30:01.814Z,79.60
2022-11-14T01:32:28.458Z,80.24
2022-11-14T01:34:54.901Z,80.48
2022-11-14T01:37:21.523Z,80.43
2022-11-14T01:39:48.010Z,80.36
2022-11-14T01:42:14.479Z,80.27
2022-11-14T01:44:44.073Z,80.19
2022-11-14T01:47:10.704Z,79.90
2022-11-14T01:49:38.598Z,80.25
2022-11-14T01:52:06.305Z,79.93
2022-11-14T01:54:33.813Z,79.93
2022-11-14T01:57:01.059Z,79.65
2022-11-14T01:59:28.336Z,80.04
2022-11-14T02:01:54.967Z,79.94
2022-11-14T02:04:23.482Z,79.92
2022-11-14T02:06:50.179Z,80.14
2022-11-14T02:09:16.785Z,80.04
2022-11-14T02:11:44.993Z,80.14
2022-11-14T02:14:11.508Z,80.24
2022-11-14T02:16:41.391Z,80.21
2022-11-14T02:19:08.157Z,79.80
2022-11-14T02:25:16.851Z,80.21
2022-11-14T02:27:43.387Z,80.15
2022-11-14T02:33:49.929Z,80.26
2022-11-14T02:36:16.361Z,80.45
2022-11-14T02:38:42.840Z,80.68
2022-11-14T02:41:09.262Z,80.80
2022-11-14T02:43:35.751Z,80.75
2022-11-14T02:46:05.572Z,80.80
2022-11-14T02:48:32.745Z,80.72
2022-11-14T02:50:59.352Z,80.82
2022-11-14T02:53:25.801Z,80.98
2022-11-14T02:55:52.241Z,80.92
2022-11-14T02:58:18.728Z,80.91
2022-11-14T03:01:13.570Z,80.67
2022-11-14T03:03:31.595Z,80.83
2022-11-14T03:06:01.341Z,80.70
2022-11-14T03:08:28.091Z,80.63
2022-11-14T03:10:54.975Z,80.34
2022-11-14T03:13:21.429Z,80.71
2022-11-14T03:15:47.873Z,80.58
2022-11-14T03:18:14.345Z,80.37
2022-11-14T03:20:40.998Z,80.60
2022-11-14T03:23:07.507Z,80.30
2022-11-14T03:25:34.029Z,80.64
2022-11-14T03:28:00.469Z,80.71
2022-11-14T03:30:26.887Z,80.74
2022-11-14T03:32:53.328Z,80.85
2022-11-14T03:35:19.754Z,80.74
2022-11-14T03:37:46.248Z,80.85
2022-11-14T03:40:12.805Z,80.47
2022-11-14T03:42:39.251Z,80.79
2022-11-14T03:45:05.934Z,80.63
2022-11-14T03:47:33.727Z,80.70
2022-11-14T03:50:00.169Z,80.60
2022-11-14T03:52:26.620Z,80.67
2022-11-14T03:54:53.252Z,80.66
2022-11-14T03:57:19.680Z,80.81
2022-11-14T03:59:46.141Z,80.52
2022-11-14T04:02:12.620Z,80.50
2022-11-14T04:04:39.027Z,80.10
2022-11-14T04:07:06.620Z,80.11
2022-11-14T04:09:33.159Z,80.31
2022-11-14T04:11:59.587Z,80.27
2022-11-14T04:14:26.077Z,80.28
2022-11-14T04:16:52.628Z,80.34
2022-11-14T04:19:19.058Z,80.82
2022-11-14T04:21:45.505Z,80.86
2022-11-14T04:24:11.935Z,80.79
2022-11-14T04:26:38.433Z,80.73
2022-11-14T04:29:05.006Z,81.17
2022-11-14T04:31:32.672Z,80.88
2022-11-14T04:33:59.130Z,81.02
2022-11-14T04:36:25.563Z,80.98
2022-11-14T04:38:51.999Z,80.80
2022-11-14T04:41:18.451Z,80.83
2022-11-14T04:43:50.490Z,81.04
2022-11-14T04:46:17.341Z,81.34
2022-11-14T04:48:43.762Z,80.99
2022-11-14T04:51:10.194Z,80.78
2022-11-14T04:53:36.663Z,80.92
2022-11-14T04:56:03.110Z,80.98
2022-11-14T04:58:30.259Z,81.06
2022-11-14T05:00:58.044Z,81.22
2022-11-14T05:03:24.815Z,80.93
2022-11-14T05:05:51.306Z,80.78
2022-11-14T05:08:17.792Z,80.81
2022-11-14T05:10:44.631Z,81.08
2022-11-14T05:13:11.583Z,80.89
2022-11-14T05:15:38.197Z,81.06
2022-11-14T05:18:04.747Z,81.86
2022-11-14T05:20:31.226Z,82.19
2022-11-14T05:22:58.550Z,81.84
2022-11-14T05:25:25.087Z,81.95
2022-11-14T05:27:51.594Z,81.86
2022-11-14T05:30:18.072Z,81.93
2022-11-14T05:32:44.835Z,81.97
2022-11-14T05:35:11.379Z,81.67
2022-11-14T05:37:37.902Z,81.53
2022-11-14T05:40:04.879Z,81.80
2022-11-14T05:42:31.292Z,81.82
2022-11-14T05:44:57.853Z,81.88
2022-11-14T05:47:24.278Z,81.88
2022-11-14T05:49:50.776Z,81.75
2022-11-14T05:52:17.233Z,81.60
2022-11-14T05:54:43.675Z,81.92
2022-11-14T05:57:10.196Z,82.31
2022-11-14T05:59:36.629Z,82.49
2022-11-14T06:02:03.210Z,82.36
2022-11-14T06:04:29.696Z,82.54
2022-11-14T06:06:56.199Z,82.62
2022-11-14T06:09:22.722Z,82.49
2022-11-14T06:11:49.148Z,82.25
2022-11-14T06:14:15.752Z,82.47
2022-11-14T06:16:42.213Z,82.46
2022-11-14T06:19:08.625Z,82.53
2022-11-14T06:21:35.100Z,82.50
2022-11-14T06:24:01.589Z,82.29
2022-11-14T06:26:31.534Z,82.20
2022-11-14T06:28:58.084Z,82.42
2022-11-14T06:31:24.588Z,82.48
2022-11-14T06:33:51.164Z,82.69
2022-11-14T06:36:17.608Z,83.06
2022-11-14T06:38:44.149Z,82.85
2022-11-14T06:41:14.843Z,82.87
2022-11-14T06:43:42.228Z,82.75
2022-11-14T06:46:09.186Z,82.82
2022-11-14T06:48:35.742Z,82.95
2022-11-14T06:51:02.401Z,82.73
2022-11-14T06:53:29.239Z,82.82
2022-11-14T06:55:56.194Z,82.97
2022-11-14T06:58:22.638Z,82.75
2022-11-14T07:00:49.269Z,82.70
2022-11-14T07:03:15.739Z,82.98
2022-11-14T07:05:42.250Z,83.06
2022-11-14T07:08:11.101Z,82.82
2022-11-14T07:10:37.524Z,82.66
2022-11-14T07:13:35.213Z,83.11
2022-11-14T07:16:01.714Z,83.25
2022-11-14T07:18:30.118Z,83.19
2022-11-14T07:20:57.449Z,83.32
2022-11-14T07:23:24.380Z,83.40
2022-11-14T07:25:50.776Z,83.69
2022-11-14T07:28:17.224Z,83.51
2022-11-14T07:30:43.677Z,83.93
2022-11-14T07:33:11.263Z,84.16
2022-11-14T07:35:40.747Z,83.54
2022-11-14T07:38:07.164Z,83.48
2022-11-14T07:40:33.582Z,81.46
2022-11-14T07:43:00.696Z,100.00
2022-11-14T07:45:27.648Z,100.00
2022-11-14T07:47:55.133Z,72.50
2022-11-14T07:50:21.638Z,70.57
2022-11-14T07:52:54.542Z,64.63
2022-11-14T07:55:21.342Z,61.72
2022-11-14T07:57:49.357Z,60.10
2022-11-14T08:00:17.054Z,55.09
2022-11-14T08:02:43.512Z,55.76
2022-11-14T08:05:09.976Z,54.85
2022-11-14T08:07:36.506Z,56.56
2022-11-14T08:10:03.364Z,57.97
2022-11-14T08:12:29.832Z,54.52
2022-11-14T08:14:56.246Z,53.53
2022-11-14T08:17:22.988Z,45.90
2022-11-14T08:19:49.418Z,46.54
2022-11-14T08:22:15.880Z,47.71
2022-11-14T08:24:42.390Z,46.13
2022-11-14T08:27:08.900Z,45.93
2022-11-14T08:29:35.374Z,44.59
2022-11-14T08:32:01.834Z,41.18
2022-11-14T08:34:29.338Z,41.59
2022-11-14T08:36:57.313Z,40.93
2022-11-14T08:39:23.950Z,39.89
2022-11-14T08:41:50.440Z,41.53
2022-11-14T08:44:16.889Z,38.42
2022-11-14T08:46:43.393Z,37.77
2022-11-14T08:49:09.867Z,38.28
2022-11-14T08:51:37.092Z,36.94
2022-11-14T08:54:03.638Z,35.77
2022-11-14T08:56:30.070Z,36.21
2022-11-14T08:58:56.537Z,37.52
2022-11-14T09:01:22.981Z,39.83
2022-11-14T09:03:50.753Z,39.02
2022-11-14T09:06:18.619Z,39.31
2022-11-14T09:08:45.128Z,41.22
2022-11-14T09:11:14.278Z,43.02
2022-11-14T09:13:43.125Z,44.47
2022-11-14T09:16:09.829Z,45.77
2022-11-14T09:18:36.294Z,47.71
2022-11-14T09:21:03.348Z,48.09
2022-11-14T09:23:30.386Z,50.67
2022-11-14T09:25:57.200Z,50.44
2022-11-14T09:28:24.178Z,51.36
2022-11-14T09:30:50.646Z,51.14
2022-11-14T09:33:18.523Z,53.45
2022-11-14T09:35:44.931Z,53.07
2022-11-14T09:38:11.475Z,55.24
2022-11-14T09:41:07.579Z,56.40
2022-11-14T09:43:39.188Z,57.08
2022-11-14T09:46:11.189Z,56.18
2022-11-14T09:48:37.633Z,57.04
2022-11-14T09:51:08.304Z,56.50
2022-11-14T09:53:37.188Z,58.30
2022-11-14T09:56:03.670Z,58.13
2022-11-14T09:58:30.411Z,58.90
2022-11-14T10:00:58.786Z,57.22
2022-11-14T10:03:31.769Z,57.34
2022-11-14T10:06:08.658Z,57.69
2022-11-14T10:08:39.756Z,58.08
2022-11-14T10:11:08.117Z,57.37
2022-11-14T10:13:46.738Z,57.85
2022-11-14T10:16:33.430Z,56.75
2022-11-14T10:19:01.243Z,56.80
2022-11-14T10:21:30.699Z,56.27
2022-11-14T10:24:00.830Z,55.90
2022-11-14T10:26:30.193Z,55.25
2022-11-14T10:28:59.792Z,54.89
2022-11-14T10:31:48.711Z,54.93
2022-11-14T10:34:21.320Z,56.00
2022-11-14T10:36:50.901Z,55.02
2022-11-14T10:39:22.347Z,55.30
2022-11-14T10:41:57.884Z,54.94
2022-11-14T10:44:29.712Z,55.65
2022-11-14T10:46:57.037Z,53.91
2022-11-14T10:49:24.091Z,52.85
2022-11-14T10:51:51.443Z,53.68
2022-11-14T10:54:18.681Z,53.70
2022-11-14T10:56:48.600Z,52.88
2022-11-14T10:59:15.111Z,51.97
2022-11-14T11:01:41.573Z,52.34
2022-11-14T11:04:21.792Z,52.69
2022-11-14T11:06:49.070Z,53.55
2022-11-14T11:09:57.238Z,53.69
2022-11-14T11:12:43.777Z,53.14
2022-11-14T11:15:11.051Z,53.03
2022-11-14T11:17:42.921Z,52.24
2022-11-14T11:20:24.045Z,52.10
2022-11-14T11:22:50.525Z,51.67
2022-11-14T11:25:53.122Z,52.16
2022-11-14T11:28:20.256Z,51.55
2022-11-14T11:30:56.951Z,51.17
2022-11-14T11:33:24.362Z,50.81
2022-11-14T11:35:51.210Z,51.50
2022-11-14T11:38:17.987Z,51.57
2022-11-14T11:40:44.952Z,51.62
2022-11-14T11:46:00.905Z,52.50
2022-11-14T11:48:30.183Z,53.03
2022-11-14T11:50:56.597Z,52.41
2022-11-14T11:53:29.295Z,52.42
2022-11-14T11:56:25.256Z,52.09
2022-11-14T11:58:52.333Z,52.02
2022-11-14T12:01:19.756Z,52.17
2022-11-14T12:03:51.574Z,51.45
2022-11-14T12:06:20.397Z,51.71
2022-11-14T12:08:49.874Z,52.26
2022-11-14T12:11:19.978Z,52.13
2022-11-14T12:14:05.149Z,52.34
2022-11-14T12:16:37.601Z,51.73
2022-11-14T12:19:15.527Z,51.89
2022-11-14T12:22:04.464Z,52.13
2022-11-14T12:24:49.733Z,51.62
2022-11-14T12:27:22.404Z,52.47
2022-11-14T12:29:48.900Z,52.22
2022-11-14T12:32:19.497Z,52.44
2022-11-14T12:34:46.310Z,51.92
2022-11-14T12:37:23.569Z,52.29
2022-11-14T12:40:00.574Z,52.52
2022-11-14T12:42:27.176Z,52.85
2022-11-14T12:44:53.641Z,52.51
2022-11-14T12:47:20.878Z,53.94
2022-11-14T12:49:47.314Z,53.15
2022-11-14T12:52:32.629Z,54.01
2022-11-14T12:54:59.069Z,53.53
2022-11-14T12:57:46.210Z,53.12
2022-11-14T13:00:12.810Z,52.39
2022-11-14T13:02:45.408Z,53.92
2022-11-14T13:05:15.007Z,53.29
2022-11-14T13:08:00.229Z,53.63
2022-11-14T13:10:36.977Z,53.72
2022-11-14T13:13:32.105Z,53.39
2022-11-14T13:16:37.903Z,52.51
2022-11-14T13:19:33.974Z,53.79
2022-11-14T13:22:12.713Z,53.15
2022-11-14T13:24:58.130Z,52.87
2022-11-14T13:27:52.302Z,52.42
2022-11-14T13:30:14.958Z,52.36
2022-11-14T13:32:41.374Z,52.21
2022-11-14T13:35:15.297Z,53.47
2022-11-14T13:38:00.538Z,52.93
2022-11-14T13:40:32.842Z,52.94
2022-11-14T13:43:09.809Z,52.66
2022-11-14T13:45:39.287Z,52.75
2022-11-14T13:48:38.152Z,52.57
2022-11-14T13:51:21.914Z,52.91
2022-11-14T13:53:52.586Z,53.10
2022-11-14T13:56:25.252Z,53.46
2022-11-14T13:58:59.242Z,53.31
2022-11-14T14:01:31.688Z,53.49
2022-11-14T14:03:58.175Z,53.21
2022-11-14T14:06:43.041Z,53.45
2022-11-14T14:09:13.101Z,53.70
2022-11-14T14:11:55.872Z,54.07
2022-11-14T14:14:57.866Z,54.03
2022-11-14T14:17:42.362Z,53.87
2022-11-14T14:20:27.668Z,54.01
2022-11-14T14:23:02.149Z,53.97
2022-11-14T14:25:31.823Z,54.26
2022-11-14T14:28:10.802Z,54.21
2022-11-14T14:30:37.250Z,54.37
2022-11-14T14:33:03.727Z,54.23
2022-11-14T14:35:32.599Z,54.21
2022-11-14T14:38:03.181Z,54.64
2022-11-14T14:40:31.437Z,54.74
2022-11-14T14:42:57.882Z,54.76
2022-11-14T14:45:25.969Z,54.85
2022-11-14T14:48:00.026Z,54.97
2022-11-14T14:50:50.001Z,55.51
2022-11-14T14:53:26.746Z,55.13
2022-11-14T14:56:00.315Z,55.61
2022-11-14T14:58:28.288Z,55.46
2022-11-14T15:00:57.932Z,55.66
2022-11-14T15:03:24.597Z,55.83
2022-11-14T15:05:57.368Z,55.93
2022-11-14T15:08:23.791Z,56.26
2022-11-14T15:11:07.765Z,56.77
2022-11-14T15:13:34.207Z,56.98
2022-11-14T15:16:01.841Z,57.14
2022-11-14T15:18:29.795Z,57.12
2022-11-14T15:21:11.915Z,57.53
2022-11-14T15:23:38.441Z,57.83
2022-11-14T15:26:06.194Z,57.90
2022-11-14T15:28:32.914Z,57.96
2022-11-14T15:31:00.407Z,57.77
2022-11-14T15:33:34.014Z,58.29
2022-11-14T15:36:10.690Z,58.34
2022-11-14T15:38:43.960Z,59.12
2022-11-14T15:41:20.336Z,59.32
2022-11-14T15:43:50.629Z,59.39
2022-11-14T15:46:29.402Z,59.54
2022-11-14T15:48:56.409Z,60.10
2022-11-14T15:51:38.884Z,60.10
2022-11-14T15:54:05.923Z,60.27
2022-11-14T15:56:32.418Z,60.17
2022-11-14T15:58:58.972Z,60.49
2022-11-14T16:01:28.429Z,60.36
2022-11-14T16:03:54.908Z,61.40
2022-11-14T16:06:22.100Z,61.63
2022-11-14T16:08:48.529Z,62.79
2022-11-14T16:11:14.992Z,63.25
2022-11-14T16:13:41.516Z,63.50
2022-11-14T16:16:08.612Z,63.41
2022-11-14T16:18:35.052Z,63.54
2022-11-14T16:21:01.561Z,64.67
2022-11-14T16:23:28.092Z,64.39
2022-11-14T16:25:54.714Z,64.47
2022-11-14T16:28:21.173Z,64.13
2022-11-14T16:30:47.664Z,64.55
2022-11-14T16:33:14.107Z,64.22
2022-11-14T16:35:40.602Z,64.10
2022-11-14T16:38:07.181Z,64.00
2022-11-14T16:40:33.724Z,64.34
2022-11-14T16:43:00.190Z,64.20
2022-11-14T16:45:26.704Z,64.56
2022-11-14T16:47:53.160Z,64.24
2022-11-14T16:50:19.591Z,64.52
2022-11-14T16:52:46.091Z,65.12
2022-11-14T16:55:12.830Z,64.79
2022-11-14T16:57:39.500Z,65.16
2022-11-14T17:00:10.791Z,65.60
2022-11-14T17:02:37.329Z,65.51
2022-11-14T17:05:03.938Z,65.75
2022-11-14T17:07:32.883Z,66.51
2022-11-14T17:10:00.397Z,66.20
2022-11-14T17:12:28.150Z,66.09
2022-11-14T17:14:57.546Z,66.43
2022-11-14T17:17:23.975Z,66.26
2022-11-14T17:19:50.485Z,66.58
2022-11-14T17:22:17.651Z,66.57
2022-11-14T17:24:44.362Z,67.09
2022-11-14T17:27:12.975Z,67.17
2022-11-14T17:29:39.480Z,67.08
2022-11-14T17:32:06.077Z,67.31
2022-11-14T17:35:11.799Z,67.34
2022-11-14T17:37:38.337Z,66.84
2022-11-14T17:40:05.056Z,66.86
2022-11-14T17:42:31.503Z,66.95
2022-11-14T17:45:01.177Z,66.83
2022-11-14T17:47:27.965Z,67.11
2022-11-14T17:49:54.462Z,66.28
2022-11-14T17:52:20.952Z,66.77
2022-11-14T17:54:55.237Z,66.56
2022-11-14T17:57:21.693Z,66.55
2022-11-14T17:59:48.123Z,66.76
2022-11-14T18:02:14.630Z,66.78
2022-11-14T18:04:41.081Z,66.94
2022-11-14T18:07:07.557Z,66.84
2022-11-14T18:09:34.081Z,66.45
2022-11-14T18:12:00.519Z,66.79
2022-11-14T18:14:27.034Z,66.17
2022-11-14T18:19:40.030Z,66.55
2022-11-14T18:22:06.759Z,66.07
2022-11-14T18:24:33.218Z,65.98
2022-11-14T18:26:59.695Z,66.50
2022-11-14T18:29:26.189Z,66.16
2022-11-14T18:31:52.656Z,65.66
2022-11-14T18:34:19.663Z,66.00
2022-11-14T18:36:49.238Z,65.91
2022-11-14T18:39:15.664Z,65.75
2022-11-14T18:41:42.190Z,65.93
2022-11-14T18:44:08.668Z,66.39
2022-11-14T18:46:37.515Z,66.34
2022-11-14T18:49:04.229Z,66.49
2022-11-14T18:51:31.025Z,66.18
2022-11-14T18:53:59.313Z,66.74
2022-11-14T18:56:26.147Z,66.78
2022-11-14T18:58:53.349Z,66.94
2022-11-14T19:01:24.006Z,67.69
2022-11-14T19:03:50.858Z,67.27
2022-11-14T19:06:17.379Z,67.57
2022-11-14T19:08:43.922Z,68.62
2022-11-14T19:11:36.363Z,69.25
2022-11-14T19:14:03.810Z,69.64
2022-11-14T19:16:31.664Z,70.11
2022-11-14T19:18:58.413Z,100.00
2022-11-14T19:21:24.936Z,100.00
2022-11-14T19:23:51.442Z,100.00
2022-11-14T19:26:17.965Z,100.00
2022-11-14T19:29:04.715Z,100.00
2022-11-14T19:31:31.263Z,100.00
2022-11-14T19:33:58.003Z,100.00
2022-11-14T19:39:11.008Z,100.00
2022-11-14T19:41:37.527Z,100.00
2022-11-14T19:44:04.063Z,100.00
2022-11-14T19:46:30.602Z,100.00
2022-11-14T19:48:57.772Z,100.00
2022-11-14T19:51:24.625Z,100.00
2022-11-14T19:53:53.370Z,100.00
2022-11-14T19:56:20.047Z,100.00
2022-11-14T19:58:46.999Z,100.00
2022-11-14T20:01:14.300Z,100.00
2022-11-14T20:03:40.773Z,100.00
2022-11-14T20:06:17.784Z,100.00
2022-11-14T20:08:44.241Z,100.00
2022-11-14T20:11:10.765Z,100.00
2022-11-14T20:13:37.896Z,100.00
2022-11-14T20:16:13.839Z,100.00
2022-11-14T20:18:40.797Z,100.00
2022-11-14T20:21:08.005Z,100.00
2022-11-14T20:23:34.843Z,100.00
2022-11-14T20:26:01.411Z,100.00
2022-11-14T20:28:27.935Z,100.00
2022-11-14T20:30:54.437Z,100.00
2022-11-14T20:33:20.998Z,100.00
2022-11-14T20:35:47.788Z,100.00
2022-11-14T20:38:14.244Z,100.00
2022-11-14T20:40:40.739Z,100.00
2022-11-14T20:43:08.103Z,68.29
2022-11-14T20:45:34.571Z,68.50
2022-11-14T20:48:01.020Z,67.74
2022-11-14T20:50:27.553Z,67.96
2022-11-14T20:52:53.988Z,67.92
2022-11-14T20:55:20.436Z,68.04
2022-11-14T20:57:47.002Z,68.27
2022-11-14T21:00:13.576Z,68.79
2022-11-14T21:02:40.087Z,68.55
2022-11-14T21:05:06.858Z,68.82
2022-11-14T21:07:33.458Z,68.82
2022-11-14T21:10:18.875Z,68.85
2022-11-14T21:13:05.516Z,68.89
2022-11-14T21:15:33.540Z,68.85
2022-11-14T21:18:00.325Z,68.84
2022-11-14T21:20:27.036Z,68.80
2022-11-14T21:22:53.475Z,69.02
2022-11-14T21:25:20.087Z,68.63
2022-11-14T21:27:46.503Z,68.60
2022-11-14T21:30:13.034Z,68.15
2022-11-14T21:32:39.479Z,68.38
2022-11-14T21:35:09.711Z,68.46
2022-11-14T21:37:36.470Z,68.76
2022-11-14T21:40:02.938Z,69.02
2022-11-14T21:42:29.412Z,69.00
2022-11-14T21:44:56.039Z,69.28
2022-11-14T21:47:22.476Z,69.45
2022-11-14T21:49:50.590Z,69.52
2022-11-14T21:52:17.067Z,69.55
2022-11-14T21:54:43.475Z,69.37
2022-11-14T21:57:10.561Z,69.27
2022-11-14T21:59:37.336Z,68.56
2022-11-14T22:02:22.658Z,69.49
2022-11-14T22:04:49.097Z,69.45
2022-11-14T22:07:17.327Z,69.32
2022-11-14T22:09:45.544Z,69.76
2022-11-14T22:12:12.348Z,69.73
2022-11-14T22:14:38.777Z,69.85
2022-11-14T22:17:05.255Z,69.76
2022-11-14T22:19:31.676Z,70.10
2022-11-14T22:21:58.251Z,70.37
2022-11-14T22:24:24.721Z,70.33
2022-11-14T22:26:51.373Z,70.43
2022-11-14T22:29:17.938Z,70.53
2022-11-14T22:31:44.361Z,70.26
2022-11-14T22:34:11.122Z,70.31
2022-11-14T22:36:37.528Z,70.62
2022-11-14T22:39:04.940Z,70.67
2022-11-14T22:41:33.279Z,70.67
2022-11-14T22:44:00.348Z,71.27
2022-11-14T22:46:27.600Z,71.64
2022-11-14T22:48:54.476Z,72.24
2022-11-14T22:51:21.594Z,72.40
2022-11-14T22:53:48.878Z,72.62
2022-11-14T22:56:15.771Z,72.30
2022-11-14T22:58:42.355Z,72.15
2022-11-14T23:01:12.559Z,72.29
2022-11-14T23:03:39.619Z,72.38
2022-11-14T23:06:10.100Z,71.88
2022-11-14T23:08:36.599Z,71.80
2022-11-14T23:11:07.284Z,71.41
2022-11-14T23:13:52.567Z,71.23
2022-11-14T23:16:23.639Z,71.35
2022-11-14T23:18:50.318Z,71.55
2022-11-14T23:21:18.158Z,71.80
2022-11-14T23:23:44.693Z,71.78
2022-11-14T23:26:12.253Z,72.15
2022-11-14T23:28:38.716Z,72.10
2022-11-14T23:31:05.270Z,72.25
2022-11-14T23:33:32.143Z,71.79
2022-11-14T23:35:58.834Z,71.07
2022-11-14T23:38:25.433Z,70.58
2022-11-14T23:40:55.111Z,70.61
2022-11-14T23:43:21.541Z,70.35
2022-11-14T23:45:48.466Z,70.86
2022-11-14T23:48:15.455Z,70.79
2022-11-14T23:50:42.043Z,71.29
2022-11-14T23:53:08.506Z,71.52
2022-11-14T23:55:34.970Z,71.49
2022-11-14T23:58:01.459Z,72.09
